Time,TemperatureF,DewpointF,PressureIn,WindDirection,WindDirectionDegrees,WindSpeedMPH,WindSpeedGustMPH,Humidity,HourlyPrecipIn,Conditions,Clouds,dailyrainin,SoftwareType,DateUTC
2013-02-07 00:13:00,39.2,34.0,30.10,SE,138,2.0,3.0,81,0.00,,,0.00,weatherlink.com 1.10,2013-02-07 06:13:00,
2013-02-07 00:28:00,38.1,33.0,30.10,SE,138,1.0,2.0,83,0.00,,,0.00,weatherlink.com 1.10,2013-02-07 06:28:00,
2013-02-07 00:43:00,37.6,34.0,30.09,SE,138,2.0,3.0,85,0.00,,,0.00,weatherlink.com 1.10,2013-02-07 06:43:00,
2013-02-07 00:58:00,38.3,34.0,30.08,SE,138,1.0,3.0,83,0.00,,,0.00,weatherlink.com 1.10,2013-02-07 06:58:00,
2013-02-07 01:13:00,37.4,33.0,30.08,SE,138,0.0,3.0,85,0.00,,,0.00,weatherlink.com 1.10,2013-02-07 07:13:00,
2013-02-07 01:28:00,37.4,33.0,30.07,SE,138,1.0,2.0,84,0.00,,,0.00,weatherlink.com 1.10,2013-02-07 07:28:00,
2013-02-07 01:43:00,37.2,33.0,30.07,SE,138,1.0,2.0,84,0.00,,,0.00,weatherlink.com 1.10,2013-02-07 07:43:00,
2013-02-07 01:58:00,38.2,33.0,30.07,SE,138,0.0,2.0,82,0.00,,,0.00,weatherlink.com 1.10,2013-02-07 07:58:00,
2013-02-07 02:13:00,37.6,33.0,30.08,SE,138,0.0,1.0,82,0.00,,,0.00,weatherlink.com 1.10,2013-02-07 08:13:00,
2013-02-07 02:28:00,37.0,33.0,30.08,SE,138,0.0,1.0,84,0.00,,,0.00,weatherlink.com 1.10,2013-02-07 08:28:00,
2013-02-07 02:43:00,36.2,32.0,30.07,SE,138,1.0,1.0,84,0.00,,,0.00,weatherlink.com 1.10,2013-02-07 08:43:00,
2013-02-07 02:58:00,34.9,31.0,30.07,SE,138,0.0,0.0,87,0.00,,,0.00,weatherlink.com 1.10,2013-02-07 08:58:00,
2013-02-07 03:13:00,35.3,32.0,30.07,SE,138,0.0,0.0,87,0.00,,,0.00,weatherlink.com 1.10,2013-02-07 09:13:00,
2013-02-07 03:28:00,34.7,31.0,30.06,SE,138,2.0,2.0,87,0.00,,,0.00,weatherlink.com 1.10,2013-02-07 09:28:00,
2013-02-07 03:43:00,35.4,32.0,30.05,SE,138,1.0,3.0,86,0.00,,,0.00,weatherlink.com 1.10,2013-02-07 09:43:00,
2013-02-07 03:58:00,34.9,31.0,30.05,SE,138,1.0,2.0,86,0.00,,,0.00,weatherlink.com 1.10,2013-02-07 09:58:00,
2013-02-07 04:13:00,34.3,31.0,30.05,SE,138,0.0,0.0,87,0.00,,,0.00,weatherlink.com 1.10,2013-02-07 10:13:00,
2013-02-07 04:28:00,34.1,31.0,30.04,SE,138,1.0,1.0,88,0.00,,,0.00,weatherlink.com 1.10,2013-02-07 10:28:00,
2013-02-07 04:43:00,34.0,31.0,30.03,SE,138,1.0,1.0,88,0.00,,,0.00,weatherlink.com 1.10,2013-02-07 10:43:00,
2013-02-07 04:58:00,33.8,31.0,30.04,SE,138,0.0,1.0,89,0.00,,,0.00,weatherlink.com 1.10,2013-02-07 10:58:00,
2013-02-07 05:13:00,33.4,31.0,30.03,SE,138,0.0,1.0,89,0.00,,,0.00,weatherlink.com 1.10,2013-02-07 11:13:00,
2013-02-07 05:28:00,33.3,30.0,30.03,SE,138,0.0,1.0,89,0.00,,,0.00,weatherlink.com 1.10,2013-02-07 11:28:00,
2013-02-07 05:43:00,34.0,31.0,30.02,SE,138,0.0,1.0,89,0.00,,,0.00,weatherlink.com 1.10,2013-02-07 11:43:00,
2013-02-07 05:58:00,33.6,30.0,30.02,SE,138,1.0,1.0,88,0.00,,,0.00,weatherlink.com 1.10,2013-02-07 11:58:00,
2013-02-07 06:13:00,33.1,30.0,30.02,SE,138,0.0,0.0,88,0.00,,,0.00,weatherlink.com 1.10,2013-02-07 12:13:00,
2013-02-07 06:28:00,33.5,31.0,30.02,SE,138,1.0,1.0,89,0.00,,,0.00,weatherlink.com 1.10,2013-02-07 12:28:00,
2013-02-07 06:43:00,34.1,31.0,30.02,SE,138,0.0,2.0,88,0.00,,,0.00,weatherlink.com 1.10,2013-02-07 12:43:00,
2013-02-07 06:58:00,32.6,30.0,30.02,SE,138,0.0,2.0,90,0.00,,,0.00,weatherlink.com 1.10,2013-02-07 12:58:00,
2013-02-07 07:13:00,32.3,30.0,30.02,SE,138,0.0,0.0,90,0.00,,,0.00,weatherlink.com 1.10,2013-02-07 13:13:00,
2013-02-07 07:28:00,33.6,32.0,30.02,SE,138,0.0,1.0,92,0.00,,,0.00,weatherlink.com 1.10,2013-02-07 13:28:00,
2013-02-07 07:43:00,34.7,32.0,30.01,SE,138,1.0,2.0,90,0.00,,,0.00,weatherlink.com 1.10,2013-02-07 13:43:00,
2013-02-07 07:58:00,36.3,34.0,30.01,SE,138,0.0,2.0,90,0.00,,,0.00,weatherlink.com 1.10,2013-02-07 13:58:00,
2013-02-07 08:13:00,38.2,35.0,30.01,SE,126,2.0,2.0,88,0.00,,,0.00,weatherlink.com 1.10,2013-02-07 14:13:00,
2013-02-07 08:28:00,40.0,36.0,30.00,SE,125,3.0,3.0,85,0.00,,,0.00,weatherlink.com 1.10,2013-02-07 14:28:00,
2013-02-07 08:44:00,41.9,37.0,30.00,SSE,157,3.0,4.0,82,0.00,,,0.00,weatherlink.com 1.10,2013-02-07 14:44:00,
2013-02-07 08:59:00,43.6,37.0,30.00,ESE,120,2.0,4.0,78,0.00,,,0.00,weatherlink.com 1.10,2013-02-07 14:59:00,
2013-02-07 09:14:00,46.0,38.0,30.00,SSE,156,5.0,6.0,74,0.00,,,0.00,weatherlink.com 1.10,2013-02-07 15:14:00,
2013-02-07 09:29:00,48.0,38.0,29.99,SE,124,5.0,9.0,69,0.00,,,0.00,weatherlink.com 1.10,2013-02-07 15:29:00,
2013-02-07 09:44:00,49.7,39.0,29.98,South,176,9.0,11.0,68,0.00,,,0.00,weatherlink.com 1.10,2013-02-07 15:44:00,
2013-02-07 09:59:00,50.9,41.0,29.98,South,174,7.0,10.0,68,0.00,,,0.00,weatherlink.com 1.10,2013-02-07 15:59:00,
2013-02-07 10:14:00,52.6,41.0,29.98,SE,139,5.0,12.0,64,0.00,,,0.00,weatherlink.com 1.10,2013-02-07 16:14:00,
2013-02-07 10:29:00,54.4,41.0,29.98,South,189,10.0,13.0,61,0.00,,,0.00,weatherlink.com 1.10,2013-02-07 16:29:00,
2013-02-07 10:44:00,55.9,43.0,29.97,SSE,163,6.0,9.0,62,0.00,,,0.00,weatherlink.com 1.10,2013-02-07 16:44:00,
2013-02-07 10:59:00,57.6,41.0,29.96,SSW,192,7.0,11.0,55,0.00,,,0.00,weatherlink.com 1.10,2013-02-07 16:59:00,
2013-02-07 11:14:00,59.2,43.0,29.96,SSW,193,7.0,11.0,55,0.00,,,0.00,weatherlink.com 1.10,2013-02-07 17:14:00,
2013-02-07 11:29:00,60.3,43.0,29.94,South,180,4.0,8.0,53,0.00,,,0.00,weatherlink.com 1.10,2013-02-07 17:29:00,
2013-02-07 11:44:00,61.5,44.0,29.93,South,188,7.0,11.0,53,0.00,,,0.00,weatherlink.com 1.10,2013-02-07 17:44:00,
2013-02-07 11:59:00,62.2,44.0,29.92,SSW,202,4.0,9.0,52,0.00,,,0.00,weatherlink.com 1.10,2013-02-07 17:59:00,
2013-02-07 12:14:00,63.5,45.0,29.91,South,178,9.0,9.0,52,0.00,,,0.00,weatherlink.com 1.10,2013-02-07 18:14:00,
2013-02-07 12:30:00,64.2,47.0,29.91,South,173,6.0,9.0,53,0.00,,,0.00,weatherlink.com 1.10,2013-02-07 18:30:00,
2013-02-07 12:45:00,64.0,46.0,29.90,SSW,201,7.0,12.0,53,0.00,,,0.00,weatherlink.com 1.10,2013-02-07 18:45:00,
2013-02-07 13:00:00,64.3,47.0,29.90,SSW,198,11.0,11.0,53,0.00,,,0.00,weatherlink.com 1.10,2013-02-07 19:00:00,
2013-02-07 13:15:00,65.6,48.0,29.89,SSW,196,5.0,8.0,53,0.00,,,0.00,weatherlink.com 1.10,2013-02-07 19:15:00,
2013-02-07 13:45:00,64.7,49.0,29.88,South,177,4.0,8.0,57,0.00,,,0.00,weatherlink.com 1.10,2013-02-07 19:45:00,
2013-02-07 14:00:00,65.0,49.0,29.87,South,191,8.0,12.0,57,0.00,,,0.00,weatherlink.com 1.10,2013-02-07 20:00:00,
2013-02-07 14:15:00,65.5,49.0,29.86,SW,227,11.0,13.0,55,0.00,,,0.00,weatherlink.com 1.10,2013-02-07 20:15:00,
2013-02-07 14:30:00,65.0,50.0,29.85,South,181,8.0,11.0,59,0.00,,,0.00,weatherlink.com 1.10,2013-02-07 20:30:00,
2013-02-07 14:45:00,65.2,49.0,29.85,South,175,10.0,13.0,57,0.00,,,0.00,weatherlink.com 1.10,2013-02-07 20:45:00,
2013-02-07 15:00:00,65.5,49.0,29.85,South,191,8.0,14.0,56,0.00,,,0.00,weatherlink.com 1.10,2013-02-07 21:00:00,
2013-02-07 15:15:00,64.8,49.0,29.84,South,172,7.0,14.0,57,0.00,,,0.00,weatherlink.com 1.10,2013-02-07 21:15:00,
2013-02-07 15:30:00,65.7,49.0,29.84,WSW,247,6.0,10.0,55,0.00,,,0.00,weatherlink.com 1.10,2013-02-07 21:30:00,
2013-02-07 15:45:00,64.1,49.0,29.84,SSE,155,11.0,12.0,59,0.00,,,0.00,weatherlink.com 1.10,2013-02-07 21:45:00,
2013-02-07 16:00:00,63.5,50.0,29.84,South,181,4.0,10.0,61,0.00,,,0.00,weatherlink.com 1.10,2013-02-07 22:00:00,
2013-02-07 16:15:00,63.3,50.0,29.84,SSW,203,3.0,8.0,63,0.00,,,0.00,weatherlink.com 1.10,2013-02-07 22:15:00,
2013-02-07 16:30:00,62.9,51.0,29.84,SSW,205,7.0,9.0,65,0.00,,,0.00,weatherlink.com 1.10,2013-02-07 22:30:00,
2013-02-07 16:45:00,62.1,51.0,29.83,South,178,5.0,9.0,67,0.00,,,0.00,weatherlink.com 1.10,2013-02-07 22:45:00,
2013-02-07 17:00:00,61.1,51.0,29.83,SSE,159,7.0,10.0,69,0.00,,,0.00,weatherlink.com 1.10,2013-02-07 23:00:00,
2013-02-07 17:15:00,60.8,51.0,29.83,South,177,3.0,9.0,70,0.00,,,0.00,weatherlink.com 1.10,2013-02-07 23:15:00,
2013-02-07 17:30:00,60.4,51.0,29.84,South,178,1.0,6.0,71,0.00,,,0.00,weatherlink.com 1.10,2013-02-07 23:30:00,
2013-02-07 17:45:00,60.5,51.0,29.84,SSW,194,4.0,7.0,71,0.00,,,0.00,weatherlink.com 1.10,2013-02-07 23:45:00,
2013-02-07 18:00:00,58.2,51.0,29.86,NW,318,13.0,20.0,78,0.00,,,0.00,weatherlink.com 1.10,2013-02-08 00:00:00,
2013-02-07 18:15:00,53.9,51.0,29.87,NW,309,3.0,12.0,89,0.02,,,0.02,weatherlink.com 1.10,2013-02-08 00:15:00,
2013-02-07 18:30:00,52.9,50.0,29.87,NW,319,3.0,5.0,91,0.05,,,0.05,weatherlink.com 1.10,2013-02-08 00:30:00,
2013-02-07 18:45:00,52.4,50.0,29.87,NW,319,3.0,5.0,92,0.08,,,0.08,weatherlink.com 1.10,2013-02-08 00:45:00,
2013-02-07 19:00:00,52.1,50.0,29.88,WNW,300,6.0,10.0,93,0.09,,,0.09,weatherlink.com 1.10,2013-02-08 01:00:00,
2013-02-07 19:15:00,51.9,50.0,29.88,WNW,301,5.0,9.0,93,0.07,,,0.09,weatherlink.com 1.10,2013-02-08 01:15:00,
2013-02-07 19:30:00,51.4,50.0,29.88,NW,304,3.0,5.0,93,0.04,,,0.09,weatherlink.com 1.10,2013-02-08 01:30:00,
2013-02-07 19:45:00,51.1,49.0,29.88,NW,311,5.0,10.0,93,0.02,,,0.10,weatherlink.com 1.10,2013-02-08 01:45:00,
2013-02-07 20:00:00,50.7,49.0,29.88,NW,313,8.0,11.0,93,0.01,,,0.10,weatherlink.com 1.10,2013-02-08 02:00:00,
2013-02-07 20:15:00,50.3,48.0,29.89,NW,317,9.0,15.0,92,0.01,,,0.10,weatherlink.com 1.10,2013-02-08 02:15:00,
2013-02-07 20:30:00,49.6,47.0,29.89,NW,320,10.0,14.0,92,0.01,,,0.10,weatherlink.com 1.10,2013-02-08 02:30:00,
2013-02-07 20:45:00,49.0,47.0,29.90,NNW,329,6.0,11.0,93,0.01,,,0.11,weatherlink.com 1.10,2013-02-08 02:45:00,
2013-02-07 21:00:00,48.6,47.0,29.91,NW,310,6.0,10.0,94,0.02,,,0.12,weatherlink.com 1.10,2013-02-08 03:00:00,
2013-02-07 21:15:00,48.3,47.0,29.91,NW,323,9.0,14.0,94,0.03,,,0.13,weatherlink.com 1.10,2013-02-08 03:15:00,
2013-02-07 21:30:00,47.6,46.0,29.91,NNW,332,10.0,13.0,93,0.04,,,0.14,weatherlink.com 1.10,2013-02-08 03:30:00,
2013-02-07 21:45:00,47.2,45.0,29.91,NW,313,13.0,18.0,93,0.05,,,0.16,weatherlink.com 1.10,2013-02-08 03:45:00,
2013-02-07 22:00:00,46.9,45.0,29.92,NW,321,13.0,14.0,93,0.05,,,0.17,weatherlink.com 1.10,2013-02-08 04:00:00,
2013-02-07 22:15:00,46.5,45.0,29.93,NW,324,14.0,17.0,93,0.04,,,0.17,weatherlink.com 1.10,2013-02-08 04:15:00,
2013-02-07 22:30:00,45.6,44.0,29.93,NNW,333,11.0,19.0,92,0.03,,,0.17,weatherlink.com 1.10,2013-02-08 04:30:00,
2013-02-07 22:45:00,45.0,43.0,29.93,NW,309,11.0,17.0,93,0.01,,,0.17,weatherlink.com 1.10,2013-02-08 04:45:00,
2013-02-07 23:00:00,44.8,43.0,29.94,NNW,341,13.0,19.0,92,0.00,,,0.17,weatherlink.com 1.10,2013-02-08 05:00:00,
2013-02-07 23:15:00,44.5,42.0,29.94,NW,321,8.0,16.0,91,0.00,,,0.17,weatherlink.com 1.10,2013-02-08 05:15:00,
2013-02-07 23:30:00,44.1,42.0,29.96,NW,321,13.0,18.0,91,0.00,,,0.17,weatherlink.com 1.10,2013-02-08 05:30:00,
2013-02-07 23:45:00,43.8,41.0,29.96,North,349,14.0,21.0,91,0.00,,,0.17,weatherlink.com 1.10,2013-02-08 05:45:00,